sensor_id;sensor_type;location;lat;lon;timestamp;P1;durP1;ratioP1;P2;durP2;ratioP2
46765;SDS011;32527;51.986;5.842;2023-06-22T00:02:13;10.20;;;9.35;;
46765;SDS011;32527;51.986;5.842;2023-06-22T00:04:39;9.60;;;8.75;;
46765;SDS011;32527;51.986;5.842;2023-06-22T00:07:05;10.70;;;9.80;;
46765;SDS011;32527;51.986;5.842;2023-06-22T00:09:31;12.82;;;11.70;;
46765;SDS011;32527;51.986;5.842;2023-06-22T00:11:57;9.43;;;8.52;;
46765;SDS011;32527;51.986;5.842;2023-06-22T00:14:23;11.25;;;10.10;;
46765;SDS011;32527;51.986;5.842;2023-06-22T00:16:49;8.65;;;7.82;;
46765;SDS011;32527;51.986;5.842;2023-06-22T00:19:22;8.95;;;8.15;;
46765;SDS011;32527;51.986;5.842;2023-06-22T00:21:48;10.85;;;8.98;;
46765;SDS011;32527;51.986;5.842;2023-06-22T00:24:18;9.40;;;8.32;;
46765;SDS011;32527;51.986;5.842;2023-06-22T00:26:47;9.07;;;8.13;;
46765;SDS011;32527;51.986;5.842;2023-06-22T00:29:14;8.00;;;7.25;;
46765;SDS011;32527;51.986;5.842;2023-06-22T00:31:40;8.50;;;7.75;;
46765;SDS011;32527;51.986;5.842;2023-06-22T00:34:08;8.27;;;7.50;;
46765;SDS011;32527;51.986;5.842;2023-06-22T00:36:34;8.63;;;7.90;;
46765;SDS011;32527;51.986;5.842;2023-06-22T00:39:00;11.68;;;10.68;;
46765;SDS011;32527;51.986;5.842;2023-06-22T00:41:27;11.30;;;8.98;;
46765;SDS011;32527;51.986;5.842;2023-06-22T00:43:53;12.00;;;11.10;;
46765;SDS011;32527;51.986;5.842;2023-06-22T00:46:20;8.40;;;7.65;;
46765;SDS011;32527;51.986;5.842;2023-06-22T00:48:47;10.82;;;9.80;;
46765;SDS011;32527;51.986;5.842;2023-06-22T00:51:13;12.73;;;10.80;;
46765;SDS011;32527;51.986;5.842;2023-06-22T00:53:39;8.07;;;7.25;;
46765;SDS011;32527;51.986;5.842;2023-06-22T00:56:06;9.88;;;8.98;;
46765;SDS011;32527;51.986;5.842;2023-06-22T00:58:35;8.07;;;7.15;;
46765;SDS011;32527;51.986;5.842;2023-06-22T01:01:01;8.55;;;7.68;;
46765;SDS011;32527;51.986;5.842;2023-06-22T01:03:28;11.98;;;10.90;;
46765;SDS011;32527;51.986;5.842;2023-06-22T01:05:56;11.15;;;9.48;;
46765;SDS011;32527;51.986;5.842;2023-06-22T01:08:29;11.07;;;10.05;;
46765;SDS011;32527;51.986;5.842;2023-06-22T01:11:07;10.52;;;9.52;;
46765;SDS011;32527;51.986;5.842;2023-06-22T01:13:42;11.73;;;10.65;;
46765;SDS011;32527;51.986;5.842;2023-06-22T01:16:20;11.15;;;10.07;;
46765;SDS011;32527;51.986;5.842;2023-06-22T01:18:51;11.80;;;10.77;;
46765;SDS011;32527;51.986;5.842;2023-06-22T01:21:20;10.52;;;9.25;;
46765;SDS011;32527;51.986;5.842;2023-06-22T01:26:19;9.95;;;8.88;;
46765;SDS011;32527;51.986;5.842;2023-06-22T01:29:05;10.80;;;7.78;;
46765;SDS011;32527;51.986;5.842;2023-06-22T01:31:33;11.60;;;10.55;;
46765;SDS011;32527;51.986;5.842;2023-06-22T01:34:01;11.35;;;10.35;;
46765;SDS011;32527;51.986;5.842;2023-06-22T01:36:29;11.98;;;10.82;;
46765;SDS011;32527;51.986;5.842;2023-06-22T01:38:57;10.93;;;9.48;;
46765;SDS011;32527;51.986;5.842;2023-06-22T01:41:25;12.48;;;11.32;;
46765;SDS011;32527;51.986;5.842;2023-06-22T01:43:51;12.70;;;11.50;;
46765;SDS011;32527;51.986;5.842;2023-06-22T01:46:20;9.48;;;8.57;;
46765;SDS011;32527;51.986;5.842;2023-06-22T01:48:47;8.85;;;7.95;;
46765;SDS011;32527;51.986;5.842;2023-06-22T01:51:14;10.43;;;9.48;;
46765;SDS011;32527;51.986;5.842;2023-06-22T01:53:40;12.07;;;8.90;;
46765;SDS011;32527;51.986;5.842;2023-06-22T01:56:07;10.00;;;9.02;;
46765;SDS011;32527;51.986;5.842;2023-06-22T01:58:33;10.98;;;9.95;;
46765;SDS011;32527;51.986;5.842;2023-06-22T02:01:09;9.27;;;8.37;;
46765;SDS011;32527;51.986;5.842;2023-06-22T02:03:44;11.85;;;10.63;;
46765;SDS011;32527;51.986;5.842;2023-06-22T02:06:21;11.25;;;10.10;;
46765;SDS011;32527;51.986;5.842;2023-06-22T02:08:55;12.60;;;11.32;;
46765;SDS011;32527;51.986;5.842;2023-06-22T02:11:25;12.38;;;9.93;;
46765;SDS011;32527;51.986;5.842;2023-06-22T02:13:52;10.48;;;9.55;;
46765;SDS011;32527;51.986;5.842;2023-06-22T02:16:19;15.20;;;13.85;;
46765;SDS011;32527;51.986;5.842;2023-06-22T02:18:46;13.35;;;11.45;;
46765;SDS011;32527;51.986;5.842;2023-06-22T02:21:13;10.80;;;9.20;;
46765;SDS011;32527;51.986;5.842;2023-06-22T02:23:40;11.63;;;10.43;;
46765;SDS011;32527;51.986;5.842;2023-06-22T02:26:06;11.50;;;10.43;;
46765;SDS011;32527;51.986;5.842;2023-06-22T02:28:32;9.55;;;8.65;;
46765;SDS011;32527;51.986;5.842;2023-06-22T02:30:59;12.48;;;11.23;;
46765;SDS011;32527;51.986;5.842;2023-06-22T02:33:25;14.20;;;12.80;;
46765;SDS011;32527;51.986;5.842;2023-06-22T02:35:51;10.32;;;9.40;;
46765;SDS011;32527;51.986;5.842;2023-06-22T02:38:17;13.10;;;12.05;;
46765;SDS011;32527;51.986;5.842;2023-06-22T02:40:44;15.63;;;13.65;;
46765;SDS011;32527;51.986;5.842;2023-06-22T02:43:10;14.52;;;13.13;;
46765;SDS011;32527;51.986;5.842;2023-06-22T02:45:37;15.10;;;13.63;;
46765;SDS011;32527;51.986;5.842;2023-06-22T02:48:06;11.55;;;10.52;;
46765;SDS011;32527;51.986;5.842;2023-06-22T02:50:33;16.98;;;15.50;;
46765;SDS011;32527;51.986;5.842;2023-06-22T02:52:59;11.18;;;9.55;;
46765;SDS011;32527;51.986;5.842;2023-06-22T02:55:28;10.70;;;9.23;;
46765;SDS011;32527;51.986;5.842;2023-06-22T02:57:57;11.73;;;10.50;;
46765;SDS011;32527;51.986;5.842;2023-06-22T03:00:26;10.02;;;9.05;;
46765;SDS011;32527;51.986;5.842;2023-06-22T03:02:56;16.05;;;11.18;;
46765;SDS011;32527;51.986;5.842;2023-06-22T03:05:23;15.75;;;14.30;;
46765;SDS011;32527;51.986;5.842;2023-06-22T03:07:49;13.23;;;11.93;;
46765;SDS011;32527;51.986;5.842;2023-06-22T03:10:16;13.10;;;10.82;;
46765;SDS011;32527;51.986;5.842;2023-06-22T03:12:43;13.32;;;12.10;;
46765;SDS011;32527;51.986;5.842;2023-06-22T03:15:09;11.63;;;10.57;;
46765;SDS011;32527;51.986;5.842;2023-06-22T03:17:37;10.95;;;9.85;;
46765;SDS011;32527;51.986;5.842;2023-06-22T03:20:07;13.48;;;10.80;;
46765;SDS011;32527;51.986;5.842;2023-06-22T03:22:35;12.95;;;11.80;;
46765;SDS011;32527;51.986;5.842;2023-06-22T03:25:01;17.27;;;15.63;;
46765;SDS011;32527;51.986;5.842;2023-06-22T03:27:28;16.38;;;14.80;;
46765;SDS011;32527;51.986;5.842;2023-06-22T03:29:54;18.38;;;16.48;;
46765;SDS011;32527;51.986;5.842;2023-06-22T03:32:21;17.52;;;15.93;;
46765;SDS011;32527;51.986;5.842;2023-06-22T03:34:47;19.85;;;17.98;;
46765;SDS011;32527;51.986;5.842;2023-06-22T03:37:15;16.30;;;14.77;;
46765;SDS011;32527;51.986;5.842;2023-06-22T03:39:42;13.38;;;12.13;;
46765;SDS011;32527;51.986;5.842;2023-06-22T03:42:08;15.23;;;12.73;;
46765;SDS011;32527;51.986;5.842;2023-06-22T03:44:35;14.60;;;13.20;;
46765;SDS011;32527;51.986;5.842;2023-06-22T03:47:01;17.13;;;15.45;;
46765;SDS011;32527;51.986;5.842;2023-06-22T03:49:27;14.07;;;12.68;;
46765;SDS011;32527;51.986;5.842;2023-06-22T03:51:54;12.40;;;10.25;;
46765;SDS011;32527;51.986;5.842;2023-06-22T03:54:20;14.48;;;13.00;;
46765;SDS011;32527;51.986;5.842;2023-06-22T03:56:46;18.58;;;16.67;;
46765;SDS011;32527;51.986;5.842;2023-06-22T03:59:12;11.82;;;9.93;;
46765;SDS011;32527;51.986;5.842;2023-06-22T04:01:38;18.02;;;16.33;;
46765;SDS011;32527;51.986;5.842;2023-06-22T04:04:04;19.67;;;17.52;;
46765;SDS011;32527;51.986;5.842;2023-06-22T04:06:30;15.80;;;14.25;;
46765;SDS011;32527;51.986;5.842;2023-06-22T04:08:56;16.13;;;14.32;;
46765;SDS011;32527;51.986;5.842;2023-06-22T04:11:22;19.98;;;18.25;;
46765;SDS011;32527;51.986;5.842;2023-06-22T04:13:48;17.13;;;15.38;;
46765;SDS011;32527;51.986;5.842;2023-06-22T04:16:16;16.70;;;14.98;;
46765;SDS011;32527;51.986;5.842;2023-06-22T04:18:42;19.13;;;17.27;;
46765;SDS011;32527;51.986;5.842;2023-06-22T04:21:09;19.55;;;17.65;;
46765;SDS011;32527;51.986;5.842;2023-06-22T04:23:35;19.60;;;17.73;;
46765;SDS011;32527;51.986;5.842;2023-06-22T04:26:01;17.75;;;14.68;;
46765;SDS011;32527;51.986;5.842;2023-06-22T04:28:27;16.73;;;15.05;;
46765;SDS011;32527;51.986;5.842;2023-06-22T04:30:53;20.77;;;18.58;;
46765;SDS011;32527;51.986;5.842;2023-06-22T04:33:23;19.08;;;16.30;;
46765;SDS011;32527;51.986;5.842;2023-06-22T04:35:49;20.02;;;17.95;;
46765;SDS011;32527;51.986;5.842;2023-06-22T04:38:15;21.35;;;16.55;;
46765;SDS011;32527;51.986;5.842;2023-06-22T04:40:41;21.40;;;18.83;;
46765;SDS011;32527;51.986;5.842;2023-06-22T04:43:07;22.75;;;19.17;;
46765;SDS011;32527;51.986;5.842;2023-06-22T04:45:35;20.65;;;18.48;;
46765;SDS011;32527;51.986;5.842;2023-06-22T04:48:03;23.77;;;21.20;;
46765;SDS011;32527;51.986;5.842;2023-06-22T04:50:29;20.30;;;18.25;;
46765;SDS011;32527;51.986;5.842;2023-06-22T04:52:55;21.10;;;18.98;;
46765;SDS011;32527;51.986;5.842;2023-06-22T04:55:21;19.20;;;17.13;;
46765;SDS011;32527;51.986;5.842;2023-06-22T04:57:48;19.75;;;17.63;;
46765;SDS011;32527;51.986;5.842;2023-06-22T05:00:17;21.27;;;17.17;;
46765;SDS011;32527;51.986;5.842;2023-06-22T05:02:44;26.38;;;21.35;;
46765;SDS011;32527;51.986;5.842;2023-06-22T05:05:12;23.92;;;17.85;;
46765;SDS011;32527;51.986;5.842;2023-06-22T05:07:42;18.40;;;16.42;;
46765;SDS011;32527;51.986;5.842;2023-06-22T05:10:12;18.08;;;16.20;;
46765;SDS011;32527;51.986;5.842;2023-06-22T05:12:39;22.20;;;19.77;;
46765;SDS011;32527;51.986;5.842;2023-06-22T05:15:06;24.17;;;20.50;;
46765;SDS011;32527;51.986;5.842;2023-06-22T05:17:33;19.50;;;17.50;;
46765;SDS011;32527;51.986;5.842;2023-06-22T05:20:00;18.10;;;14.80;;
46765;SDS011;32527;51.986;5.842;2023-06-22T05:22:38;22.98;;;19.40;;
46765;SDS011;32527;51.986;5.842;2023-06-22T05:25:05;17.13;;;15.27;;
46765;SDS011;32527;51.986;5.842;2023-06-22T05:27:33;23.25;;;19.67;;
46765;SDS011;32527;51.986;5.842;2023-06-22T05:30:04;19.40;;;17.35;;
46765;SDS011;32527;51.986;5.842;2023-06-22T05:32:34;19.65;;;17.10;;
46765;SDS011;32527;51.986;5.842;2023-06-22T05:35:00;23.30;;;20.92;;
46765;SDS011;32527;51.986;5.842;2023-06-22T05:37:26;22.70;;;20.40;;
46765;SDS011;32527;51.986;5.842;2023-06-22T05:39:52;19.58;;;17.65;;
46765;SDS011;32527;51.986;5.842;2023-06-22T05:42:19;18.98;;;15.95;;
46765;SDS011;32527;51.986;5.842;2023-06-22T05:44:45;19.88;;;16.70;;
46765;SDS011;32527;51.986;5.842;2023-06-22T05:47:12;22.25;;;18.20;;
46765;SDS011;32527;51.986;5.842;2023-06-22T05:49:38;23.63;;;21.35;;
46765;SDS011;32527;51.986;5.842;2023-06-22T05:52:04;20.42;;;18.35;;
46765;SDS011;32527;51.986;5.842;2023-06-22T05:54:30;17.75;;;15.82;;
46765;SDS011;32527;51.986;5.842;2023-06-22T05:56:56;21.75;;;19.50;;
46765;SDS011;32527;51.986;5.842;2023-06-22T05:59:22;17.73;;;15.85;;
46765;SDS011;32527;51.986;5.842;2023-06-22T06:01:49;19.05;;;17.05;;
46765;SDS011;32527;51.986;5.842;2023-06-22T06:04:16;19.80;;;15.57;;
46765;SDS011;32527;51.986;5.842;2023-06-22T06:06:43;17.50;;;13.48;;
46765;SDS011;32527;51.986;5.842;2023-06-22T06:09:09;19.38;;;16.48;;
46765;SDS011;32527;51.986;5.842;2023-06-22T06:11:36;20.52;;;17.02;;
46765;SDS011;32527;51.986;5.842;2023-06-22T06:14:02;20.45;;;16.75;;
46765;SDS011;32527;51.986;5.842;2023-06-22T06:16:28;18.02;;;15.85;;
46765;SDS011;32527;51.986;5.842;2023-06-22T06:18:54;18.42;;;14.77;;
46765;SDS011;32527;51.986;5.842;2023-06-22T06:21:21;20.20;;;16.90;;
46765;SDS011;32527;51.986;5.842;2023-06-22T06:23:47;19.85;;;14.73;;
46765;SDS011;32527;51.986;5.842;2023-06-22T06:26:13;20.58;;;16.33;;
46765;SDS011;32527;51.986;5.842;2023-06-22T06:28:41;15.88;;;14.23;;
46765;SDS011;32527;51.986;5.842;2023-06-22T06:31:08;16.00;;;14.30;;
46765;SDS011;32527;51.986;5.842;2023-06-22T06:33:34;19.13;;;15.18;;
46765;SDS011;32527;51.986;5.842;2023-06-22T06:36:00;17.58;;;15.73;;
46765;SDS011;32527;51.986;5.842;2023-06-22T06:38:28;18.13;;;16.13;;
46765;SDS011;32527;51.986;5.842;2023-06-22T06:40:55;17.15;;;13.25;;
46765;SDS011;32527;51.986;5.842;2023-06-22T06:43:21;19.23;;;15.48;;
46765;SDS011;32527;51.986;5.842;2023-06-22T06:45:47;16.13;;;14.45;;
46765;SDS011;32527;51.986;5.842;2023-06-22T06:48:13;15.88;;;13.02;;
46765;SDS011;32527;51.986;5.842;2023-06-22T06:50:39;20.10;;;16.25;;
46765;SDS011;32527;51.986;5.842;2023-06-22T06:53:05;21.48;;;18.00;;
46765;SDS011;32527;51.986;5.842;2023-06-22T06:55:31;16.20;;;14.43;;
46765;SDS011;32527;51.986;5.842;2023-06-22T06:58:01;20.45;;;18.27;;
46765;SDS011;32527;51.986;5.842;2023-06-22T07:00:27;17.70;;;15.88;;
46765;SDS011;32527;51.986;5.842;2023-06-22T07:02:53;20.90;;;16.10;;
46765;SDS011;32527;51.986;5.842;2023-06-22T07:05:20;15.57;;;13.93;;
46765;SDS011;32527;51.986;5.842;2023-06-22T07:07:46;14.68;;;13.13;;
46765;SDS011;32527;51.986;5.842;2023-06-22T07:10:12;15.27;;;12.20;;
46765;SDS011;32527;51.986;5.842;2023-06-22T07:12:38;12.55;;;10.43;;
46765;SDS011;32527;51.986;5.842;2023-06-22T07:15:05;14.63;;;12.60;;
46765;SDS011;32527;51.986;5.842;2023-06-22T07:17:35;13.90;;;11.68;;
46765;SDS011;32527;51.986;5.842;2023-06-22T07:20:02;12.48;;;10.68;;
46765;SDS011;32527;51.986;5.842;2023-06-22T07:22:33;12.15;;;10.77;;
46765;SDS011;32527;51.986;5.842;2023-06-22T07:24:59;17.27;;;15.43;;
46765;SDS011;32527;51.986;5.842;2023-06-22T07:27:26;17.92;;;12.93;;
46765;SDS011;32527;51.986;5.842;2023-06-22T07:29:52;14.95;;;13.48;;
46765;SDS011;32527;51.986;5.842;2023-06-22T07:32:20;14.85;;;11.73;;
46765;SDS011;32527;51.986;5.842;2023-06-22T07:34:46;12.40;;;10.43;;
46765;SDS011;32527;51.986;5.842;2023-06-22T07:37:12;15.88;;;11.63;;
46765;SDS011;32527;51.986;5.842;2023-06-22T07:39:38;17.13;;;14.70;;
46765;SDS011;32527;51.986;5.842;2023-06-22T07:42:04;17.25;;;12.93;;
46765;SDS011;32527;51.986;5.842;2023-06-22T07:44:30;11.43;;;8.68;;
46765;SDS011;32527;51.986;5.842;2023-06-22T07:46:56;11.98;;;10.38;;
46765;SDS011;32527;51.986;5.842;2023-06-22T07:49:22;13.82;;;11.77;;
46765;SDS011;32527;51.986;5.842;2023-06-22T07:51:48;10.90;;;9.65;;
46765;SDS011;32527;51.986;5.842;2023-06-22T07:54:13;25.23;;;16.55;;
46765;SDS011;32527;51.986;5.842;2023-06-22T07:56:41;9.73;;;8.73;;
46765;SDS011;32527;51.986;5.842;2023-06-22T07:59:07;11.35;;;10.13;;
46765;SDS011;32527;51.986;5.842;2023-06-22T08:01:33;10.27;;;9.30;;
46765;SDS011;32527;51.986;5.842;2023-06-22T08:03:59;13.27;;;11.98;;
46765;SDS011;32527;51.986;5.842;2023-06-22T08:06:25;14.07;;;12.68;;
46765;SDS011;32527;51.986;5.842;2023-06-22T08:08:51;13.70;;;12.43;;
46765;SDS011;32527;51.986;5.842;2023-06-22T08:11:19;13.70;;;12.30;;
46765;SDS011;32527;51.986;5.842;2023-06-22T08:13:47;14.57;;;13.23;;
46765;SDS011;32527;51.986;5.842;2023-06-22T08:16:13;12.77;;;11.52;;
46765;SDS011;32527;51.986;5.842;2023-06-22T08:18:40;10.18;;;9.15;;
46765;SDS011;32527;51.986;5.842;2023-06-22T08:21:06;14.45;;;13.00;;
46765;SDS011;32527;51.986;5.842;2023-06-22T08:23:32;11.32;;;10.23;;
46765;SDS011;32527;51.986;5.842;2023-06-22T08:25:58;12.20;;;10.93;;
46765;SDS011;32527;51.986;5.842;2023-06-22T08:28:24;9.95;;;8.70;;
46765;SDS011;32527;51.986;5.842;2023-06-22T08:30:57;14.07;;;12.75;;
46765;SDS011;32527;51.986;5.842;2023-06-22T08:33:29;12.60;;;11.30;;
46765;SDS011;32527;51.986;5.842;2023-06-22T08:35:56;12.88;;;11.55;;
46765;SDS011;32527;51.986;5.842;2023-06-22T08:38:22;12.65;;;11.35;;
46765;SDS011;32527;51.986;5.842;2023-06-22T08:40:48;11.18;;;9.55;;
46765;SDS011;32527;51.986;5.842;2023-06-22T08:43:14;10.35;;;9.27;;
46765;SDS011;32527;51.986;5.842;2023-06-22T08:45:40;12.52;;;11.30;;
46765;SDS011;32527;51.986;5.842;2023-06-22T08:48:06;11.45;;;10.25;;
46765;SDS011;32527;51.986;5.842;2023-06-22T08:50:32;11.13;;;9.13;;
46765;SDS011;32527;51.986;5.842;2023-06-22T08:52:58;14.32;;;12.93;;
46765;SDS011;32527;51.986;5.842;2023-06-22T08:55:25;19.58;;;13.82;;
46765;SDS011;32527;51.986;5.842;2023-06-22T08:57:51;15.85;;;14.25;;
46765;SDS011;32527;51.986;5.842;2023-06-22T09:00:17;12.18;;;11.02;;
46765;SDS011;32527;51.986;5.842;2023-06-22T09:02:45;16.60;;;11.15;;
46765;SDS011;32527;51.986;5.842;2023-06-22T09:05:12;11.20;;;9.77;;
46765;SDS011;32527;51.986;5.842;2023-06-22T09:07:38;12.55;;;11.35;;
46765;SDS011;32527;51.986;5.842;2023-06-22T09:10:05;12.32;;;10.38;;
46765;SDS011;32527;51.986;5.842;2023-06-22T09:12:32;13.00;;;11.05;;
46765;SDS011;32527;51.986;5.842;2023-06-22T09:14:58;12.38;;;11.23;;
46765;SDS011;32527;51.986;5.842;2023-06-22T09:17:28;11.77;;;10.57;;
46765;SDS011;32527;51.986;5.842;2023-06-22T09:19:54;12.15;;;9.93;;
46765;SDS011;32527;51.986;5.842;2023-06-22T09:22:20;12.85;;;10.45;;
46765;SDS011;32527;51.986;5.842;2023-06-22T09:24:46;10.05;;;9.02;;
46765;SDS011;32527;51.986;5.842;2023-06-22T09:27:12;12.45;;;10.38;;
46765;SDS011;32527;51.986;5.842;2023-06-22T09:29:38;10.02;;;8.55;;
46765;SDS011;32527;51.986;5.842;2023-06-22T09:32:04;11.77;;;10.63;;
46765;SDS011;32527;51.986;5.842;2023-06-22T09:34:31;15.07;;;13.68;;
46765;SDS011;32527;51.986;5.842;2023-06-22T09:36:57;11.20;;;10.07;;
46765;SDS011;32527;51.986;5.842;2023-06-22T09:39:25;11.88;;;10.65;;
46765;SDS011;32527;51.986;5.842;2023-06-22T09:41:51;9.80;;;8.45;;
46765;SDS011;32527;51.986;5.842;2023-06-22T09:44:18;21.55;;;15.82;;
46765;SDS011;32527;51.986;5.842;2023-06-22T09:46:44;11.70;;;10.50;;
46765;SDS011;32527;51.986;5.842;2023-06-22T09:49:10;12.13;;;11.18;;
46765;SDS011;32527;51.986;5.842;2023-06-22T09:51:35;10.88;;;9.95;;
46765;SDS011;32527;51.986;5.842;2023-06-22T09:54:02;15.00;;;12.32;;
46765;SDS011;32527;51.986;5.842;2023-06-22T09:56:27;19.52;;;13.02;;
46765;SDS011;32527;51.986;5.842;2023-06-22T09:58:55;10.20;;;8.88;;
46765;SDS011;32527;51.986;5.842;2023-06-22T10:01:21;12.27;;;11.27;;
46765;SDS011;32527;51.986;5.842;2023-06-22T10:03:48;12.50;;;9.98;;
46765;SDS011;32527;51.986;5.842;2023-06-22T10:06:15;11.93;;;10.75;;
46765;SDS011;32527;51.986;5.842;2023-06-22T10:08:41;13.13;;;11.82;;
46765;SDS011;32527;51.986;5.842;2023-06-22T10:11:07;11.05;;;9.15;;
46765;SDS011;32527;51.986;5.842;2023-06-22T10:13:33;10.75;;;9.70;;
46765;SDS011;32527;51.986;5.842;2023-06-22T10:15:59;13.93;;;12.10;;
46765;SDS011;32527;51.986;5.842;2023-06-22T10:18:25;9.85;;;8.85;;
46765;SDS011;32527;51.986;5.842;2023-06-22T10:20:51;9.65;;;8.70;;
46765;SDS011;32527;51.986;5.842;2023-06-22T10:23:18;10.65;;;9.65;;
46765;SDS011;32527;51.986;5.842;2023-06-22T10:25:46;13.23;;;10.30;;
46765;SDS011;32527;51.986;5.842;2023-06-22T10:28:12;8.75;;;7.93;;
46765;SDS011;32527;51.986;5.842;2023-06-22T10:30:39;14.65;;;13.30;;
46765;SDS011;32527;51.986;5.842;2023-06-22T10:33:08;8.98;;;8.18;;
46765;SDS011;32527;51.986;5.842;2023-06-22T10:35:35;13.35;;;12.15;;
46765;SDS011;32527;51.986;5.842;2023-06-22T10:38:04;12.32;;;11.20;;
46765;SDS011;32527;51.986;5.842;2023-06-22T10:40:31;10.93;;;9.93;;
46765;SDS011;32527;51.986;5.842;2023-06-22T10:42:57;10.05;;;9.07;;
46765;SDS011;32527;51.986;5.842;2023-06-22T10:45:23;10.85;;;9.82;;
46765;SDS011;32527;51.986;5.842;2023-06-22T10:47:49;10.43;;;9.35;;
46765;SDS011;32527;51.986;5.842;2023-06-22T10:50:15;10.57;;;9.50;;
46765;SDS011;32527;51.986;5.842;2023-06-22T10:52:41;8.82;;;7.93;;
46765;SDS011;32527;51.986;5.842;2023-06-22T10:55:07;11.70;;;10.63;;
46765;SDS011;32527;51.986;5.842;2023-06-22T10:57:34;8.70;;;7.78;;
46765;SDS011;32527;51.986;5.842;2023-06-22T11:00:00;12.35;;;11.10;;
46765;SDS011;32527;51.986;5.842;2023-06-22T11:02:26;9.50;;;8.57;;
46765;SDS011;32527;51.986;5.842;2023-06-22T11:04:53;10.23;;;9.25;;
46765;SDS011;32527;51.986;5.842;2023-06-22T11:07:19;10.95;;;8.57;;
46765;SDS011;32527;51.986;5.842;2023-06-22T11:09:45;11.10;;;9.95;;
46765;SDS011;32527;51.986;5.842;2023-06-22T11:12:11;13.88;;;12.57;;
46765;SDS011;32527;51.986;5.842;2023-06-22T11:14:38;9.57;;;8.63;;
46765;SDS011;32527;51.986;5.842;2023-06-22T11:17:04;8.40;;;7.32;;
46765;SDS011;32527;51.986;5.842;2023-06-22T11:19:30;10.63;;;9.60;;
46765;SDS011;32527;51.986;5.842;2023-06-22T11:21:56;8.98;;;8.10;;
46765;SDS011;32527;51.986;5.842;2023-06-22T11:24:22;9.73;;;8.70;;
46765;SDS011;32527;51.986;5.842;2023-06-22T11:26:48;11.70;;;9.43;;
46765;SDS011;32527;51.986;5.842;2023-06-22T11:29:13;12.00;;;9.95;;
46765;SDS011;32527;51.986;5.842;2023-06-22T11:31:40;11.73;;;10.65;;
46765;SDS011;32527;51.986;5.842;2023-06-22T11:34:07;11.65;;;10.43;;
46765;SDS011;32527;51.986;5.842;2023-06-22T11:36:33;11.25;;;10.25;;
46765;SDS011;32527;51.986;5.842;2023-06-22T11:39:00;11.13;;;8.88;;
46765;SDS011;32527;51.986;5.842;2023-06-22T11:41:26;12.63;;;11.40;;
46765;SDS011;32527;51.986;5.842;2023-06-22T11:43:52;10.05;;;9.07;;
46765;SDS011;32527;51.986;5.842;2023-06-22T11:46:18;13.43;;;12.10;;
46765;SDS011;32527;51.986;5.842;2023-06-22T11:48:43;11.50;;;10.50;;
46765;SDS011;32527;51.986;5.842;2023-06-22T11:51:10;10.95;;;10.00;;
46765;SDS011;32527;51.986;5.842;2023-06-22T11:53:36;12.63;;;11.50;;
46765;SDS011;32527;51.986;5.842;2023-06-22T11:56:02;12.07;;;10.75;;
46765;SDS011;32527;51.986;5.842;2023-06-22T11:58:28;11.68;;;10.00;;
46765;SDS011;32527;51.986;5.842;2023-06-22T12:00:54;12.60;;;10.32;;
46765;SDS011;32527;51.986;5.842;2023-06-22T12:03:20;12.02;;;10.88;;
46765;SDS011;32527;51.986;5.842;2023-06-22T12:05:46;12.65;;;11.45;;
46765;SDS011;32527;51.986;5.842;2023-06-22T12:08:12;15.98;;;14.63;;
46765;SDS011;32527;51.986;5.842;2023-06-22T12:10:39;16.40;;;14.57;;
46765;SDS011;32527;51.986;5.842;2023-06-22T12:13:05;15.15;;;13.70;;
46765;SDS011;32527;51.986;5.842;2023-06-22T12:15:30;14.38;;;13.13;;
46765;SDS011;32527;51.986;5.842;2023-06-22T12:17:56;11.65;;;10.45;;
46765;SDS011;32527;51.986;5.842;2023-06-22T12:20:22;12.07;;;10.23;;
46765;SDS011;32527;51.986;5.842;2023-06-22T12:22:48;12.80;;;10.82;;
46765;SDS011;32527;51.986;5.842;2023-06-22T12:25:16;12.88;;;11.63;;
46765;SDS011;32527;51.986;5.842;2023-06-22T12:27:42;12.90;;;11.10;;
46765;SDS011;32527;51.986;5.842;2023-06-22T12:30:09;11.70;;;10.20;;
46765;SDS011;32527;51.986;5.842;2023-06-22T12:32:35;15.38;;;13.82;;
46765;SDS011;32527;51.986;5.842;2023-06-22T12:35:01;19.65;;;17.40;;
46765;SDS011;32527;51.986;5.842;2023-06-22T12:37:27;16.27;;;14.57;;
46765;SDS011;32527;51.986;5.842;2023-06-22T12:39:54;14.90;;;12.93;;
46765;SDS011;32527;51.986;5.842;2023-06-22T12:42:19;18.85;;;15.93;;
46765;SDS011;32527;51.986;5.842;2023-06-22T12:44:46;19.75;;;18.00;;
46765;SDS011;32527;51.986;5.842;2023-06-22T12:47:12;25.70;;;23.10;;
46765;SDS011;32527;51.986;5.842;2023-06-22T12:49:38;22.17;;;19.90;;
46765;SDS011;32527;51.986;5.842;2023-06-22T12:52:10;21.77;;;17.42;;
46765;SDS011;32527;51.986;5.842;2023-06-22T12:54:36;15.05;;;13.40;;
46765;SDS011;32527;51.986;5.842;2023-06-22T12:57:02;23.88;;;15.15;;
46765;SDS011;32527;51.986;5.842;2023-06-22T12:59:28;22.60;;;19.08;;
46765;SDS011;32527;51.986;5.842;2023-06-22T13:01:54;20.80;;;18.30;;
46765;SDS011;32527;51.986;5.842;2023-06-22T13:04:20;27.65;;;22.58;;
46765;SDS011;32527;51.986;5.842;2023-06-22T13:06:47;21.98;;;19.40;;
46765;SDS011;32527;51.986;5.842;2023-06-22T13:09:13;24.73;;;20.55;;
46765;SDS011;32527;51.986;5.842;2023-06-22T13:11:40;27.95;;;24.92;;
46765;SDS011;32527;51.986;5.842;2023-06-22T13:14:07;28.13;;;21.73;;
46765;SDS011;32527;51.986;5.842;2023-06-22T13:16:33;25.48;;;19.75;;
46765;SDS011;32527;51.986;5.842;2023-06-22T13:18:59;24.52;;;21.88;;
46765;SDS011;32527;51.986;5.842;2023-06-22T13:21:25;24.20;;;21.67;;
46765;SDS011;32527;51.986;5.842;2023-06-22T13:23:51;26.10;;;23.38;;
46765;SDS011;32527;51.986;5.842;2023-06-22T13:26:17;23.35;;;19.38;;
46765;SDS011;32527;51.986;5.842;2023-06-22T13:28:43;19.60;;;17.50;;
46765;SDS011;32527;51.986;5.842;2023-06-22T13:31:09;28.00;;;24.40;;
46765;SDS011;32527;51.986;5.842;2023-06-22T13:33:35;21.55;;;18.13;;
46765;SDS011;32527;51.986;5.842;2023-06-22T13:36:03;24.50;;;19.25;;
46765;SDS011;32527;51.986;5.842;2023-06-22T13:38:31;22.40;;;18.27;;
46765;SDS011;32527;51.986;5.842;2023-06-22T13:40:57;25.27;;;22.63;;
46765;SDS011;32527;51.986;5.842;2023-06-22T13:43:26;28.02;;;22.70;;
46765;SDS011;32527;51.986;5.842;2023-06-22T13:45:52;27.52;;;23.50;;
46765;SDS011;32527;51.986;5.842;2023-06-22T13:48:18;29.00;;;20.10;;
46765;SDS011;32527;51.986;5.842;2023-06-22T13:50:44;20.30;;;17.30;;
46765;SDS011;32527;51.986;5.842;2023-06-22T13:53:10;31.08;;;26.55;;
46765;SDS011;32527;51.986;5.842;2023-06-22T13:55:36;20.70;;;18.55;;
46765;SDS011;32527;51.986;5.842;2023-06-22T13:58:02;31.92;;;25.98;;
46765;SDS011;32527;51.986;5.842;2023-06-22T14:00:28;26.58;;;23.48;;
46765;SDS011;32527;51.986;5.842;2023-06-22T14:02:54;30.10;;;27.02;;
46765;SDS011;32527;51.986;5.842;2023-06-22T14:05:20;30.05;;;23.40;;
46765;SDS011;32527;51.986;5.842;2023-06-22T14:07:46;31.48;;;22.73;;
46765;SDS011;32527;51.986;5.842;2023-06-22T14:10:12;24.02;;;20.23;;
46765;SDS011;32527;51.986;5.842;2023-06-22T14:12:38;25.55;;;22.33;;
46765;SDS011;32527;51.986;5.842;2023-06-22T14:15:04;22.77;;;18.42;;
46765;SDS011;32527;51.986;5.842;2023-06-22T14:17:31;27.65;;;21.48;;
46765;SDS011;32527;51.986;5.842;2023-06-22T14:19:57;26.13;;;23.30;;
46765;SDS011;32527;51.986;5.842;2023-06-22T14:22:23;20.98;;;18.73;;
46765;SDS011;32527;51.986;5.842;2023-06-22T14:24:49;23.08;;;20.55;;
46765;SDS011;32527;51.986;5.842;2023-06-22T14:27:15;23.13;;;20.73;;